sensor_id;sensor_type;location;lat;lon;timestamp;P1;durP1;ratioP1;P2;durP2;ratioP2
37657;SDS011;23500;53.268;8.308;2023-02-18T00:02:03;11.05;;;8.63;;
37657;SDS011;23500;53.268;8.308;2023-02-18T00:04:29;14.63;;;9.07;;
37657;SDS011;23500;53.268;8.308;2023-02-18T00:06:55;12.48;;;9.02;;
37657;SDS011;23500;53.268;8.308;2023-02-18T00:09:21;10.43;;;8.82;;
37657;SDS011;23500;53.268;8.308;2023-02-18T00:11:47;12.63;;;8.98;;
37657;SDS011;23500;53.268;8.308;2023-02-18T00:14:13;11.32;;;8.70;;
37657;SDS011;23500;53.268;8.308;2023-02-18T00:16:40;12.63;;;8.57;;
37657;SDS011;23500;53.268;8.308;2023-02-18T00:19:07;11.07;;;9.18;;
37657;SDS011;23500;53.268;8.308;2023-02-18T00:21:36;9.07;;;7.97;;
37657;SDS011;23500;53.268;8.308;2023-02-18T00:24:03;10.43;;;8.63;;
37657;SDS011;23500;53.268;8.308;2023-02-18T00:26:29;11.15;;;8.38;;
37657;SDS011;23500;53.268;8.308;2023-02-18T00:28:55;11.25;;;8.45;;
37657;SDS011;23500;53.268;8.308;2023-02-18T00:31:22;12.45;;;8.68;;
37657;SDS011;23500;53.268;8.308;2023-02-18T00:33:53;10.23;;;8.38;;
37657;SDS011;23500;53.268;8.308;2023-02-18T00:36:20;11.93;;;8.50;;
37657;SDS011;23500;53.268;8.308;2023-02-18T00:38:48;11.15;;;8.25;;
37657;SDS011;23500;53.268;8.308;2023-02-18T00:41:15;12.10;;;8.70;;
37657;SDS011;23500;53.268;8.308;2023-02-18T00:43:41;10.38;;;8.50;;
37657;SDS011;23500;53.268;8.308;2023-02-18T00:46:07;9.85;;;7.90;;
37657;SDS011;23500;53.268;8.308;2023-02-18T00:48:33;12.02;;;8.60;;
37657;SDS011;23500;53.268;8.308;2023-02-18T00:50:59;9.52;;;8.05;;
37657;SDS011;23500;53.268;8.308;2023-02-18T00:53:26;9.02;;;7.63;;
37657;SDS011;23500;53.268;8.308;2023-02-18T00:55:53;10.63;;;7.78;;
37657;SDS011;23500;53.268;8.308;2023-02-18T00:58:19;10.10;;;8.10;;
37657;SDS011;23500;53.268;8.308;2023-02-18T01:00:45;9.80;;;8.02;;
37657;SDS011;23500;53.268;8.308;2023-02-18T01:03:11;8.52;;;7.65;;
37657;SDS011;23500;53.268;8.308;2023-02-18T01:05:37;9.75;;;8.02;;
37657;SDS011;23500;53.268;8.308;2023-02-18T01:08:03;9.43;;;8.27;;
37657;SDS011;23500;53.268;8.308;2023-02-18T01:10:29;9.45;;;8.15;;
37657;SDS011;23500;53.268;8.308;2023-02-18T01:12:55;10.38;;;7.93;;
37657;SDS011;23500;53.268;8.308;2023-02-18T01:15:21;8.63;;;7.40;;
37657;SDS011;23500;53.268;8.308;2023-02-18T01:17:47;9.80;;;7.45;;
37657;SDS011;23500;53.268;8.308;2023-02-18T01:20:13;8.88;;;7.65;;
37657;SDS011;23500;53.268;8.308;2023-02-18T01:22:39;9.40;;;7.82;;
37657;SDS011;23500;53.268;8.308;2023-02-18T01:25:05;11.20;;;7.93;;
37657;SDS011;23500;53.268;8.308;2023-02-18T01:27:31;8.38;;;7.25;;
37657;SDS011;23500;53.268;8.308;2023-02-18T01:29:57;8.20;;;7.32;;
37657;SDS011;23500;53.268;8.308;2023-02-18T01:32:22;8.93;;;7.68;;
37657;SDS011;23500;53.268;8.308;2023-02-18T01:34:48;8.90;;;7.70;;
37657;SDS011;23500;53.268;8.308;2023-02-18T01:37:14;8.38;;;7.45;;
37657;SDS011;23500;53.268;8.308;2023-02-18T01:39:39;9.52;;;7.55;;
37657;SDS011;23500;53.268;8.308;2023-02-18T01:42:05;9.30;;;7.55;;
37657;SDS011;23500;53.268;8.308;2023-02-18T01:44:32;8.05;;;7.25;;
37657;SDS011;23500;53.268;8.308;2023-02-18T01:46:58;9.77;;;8.13;;
37657;SDS011;23500;53.268;8.308;2023-02-18T01:49:25;7.63;;;6.85;;
37657;SDS011;23500;53.268;8.308;2023-02-18T01:51:57;7.85;;;6.97;;
37657;SDS011;23500;53.268;8.308;2023-02-18T01:54:34;10.27;;;7.80;;
37657;SDS011;23500;53.268;8.308;2023-02-18T01:57:11;8.57;;;7.43;;
37657;SDS011;23500;53.268;8.308;2023-02-18T01:59:47;10.50;;;7.60;;
37657;SDS011;23500;53.268;8.308;2023-02-18T02:02:17;8.82;;;7.40;;
37657;SDS011;23500;53.268;8.308;2023-02-18T02:04:45;8.40;;;7.43;;
37657;SDS011;23500;53.268;8.308;2023-02-18T02:07:11;8.30;;;7.43;;
37657;SDS011;23500;53.268;8.308;2023-02-18T02:09:39;8.27;;;7.43;;
37657;SDS011;23500;53.268;8.308;2023-02-18T02:23:36;7.13;;;6.38;;
37657;SDS011;23500;53.268;8.308;2023-02-18T02:26:44;8.38;;;7.40;;
37657;SDS011;23500;53.268;8.308;2023-02-18T02:31:52;8.68;;;7.10;;
37657;SDS011;23500;53.268;8.308;2023-02-18T02:37:33;7.90;;;7.10;;
37657;SDS011;23500;53.268;8.308;2023-02-18T02:43:11;8.65;;;7.05;;
37657;SDS011;23500;53.268;8.308;2023-02-18T02:45:52;7.40;;;6.70;;
37657;SDS011;23500;53.268;8.308;2023-02-18T02:51:50;8.82;;;6.72;;
37657;SDS011;23500;53.268;8.308;2023-02-18T02:54:25;7.68;;;6.88;;
37657;SDS011;23500;53.268;8.308;2023-02-18T02:59:55;8.27;;;6.85;;
37657;SDS011;23500;53.268;8.308;2023-02-18T03:13:25;7.05;;;6.28;;
37657;SDS011;23500;53.268;8.308;2023-02-18T03:18:47;7.20;;;6.47;;
37657;SDS011;23500;53.268;8.308;2023-02-18T03:21:28;7.47;;;6.68;;
37657;SDS011;23500;53.268;8.308;2023-02-18T03:24:33;7.47;;;6.68;;
37657;SDS011;23500;53.268;8.308;2023-02-18T03:27:01;7.25;;;6.25;;
37657;SDS011;23500;53.268;8.308;2023-02-18T03:29:32;7.95;;;6.70;;
37657;SDS011;23500;53.268;8.308;2023-02-18T03:32:00;8.05;;;7.18;;
37657;SDS011;23500;53.268;8.308;2023-02-18T03:34:30;7.03;;;6.32;;
37657;SDS011;23500;53.268;8.308;2023-02-18T03:36:59;8.07;;;6.40;;
37657;SDS011;23500;53.268;8.308;2023-02-18T03:39:27;7.00;;;6.30;;
37657;SDS011;23500;53.268;8.308;2023-02-18T03:41:55;7.65;;;6.60;;
37657;SDS011;23500;53.268;8.308;2023-02-18T03:44:20;6.57;;;5.82;;
37657;SDS011;23500;53.268;8.308;2023-02-18T03:46:49;7.25;;;6.15;;
37657;SDS011;23500;53.268;8.308;2023-02-18T03:49:15;7.13;;;6.43;;
37657;SDS011;23500;53.268;8.308;2023-02-18T03:51:41;7.18;;;6.40;;
37657;SDS011;23500;53.268;8.308;2023-02-18T03:54:07;7.03;;;6.03;;
37657;SDS011;23500;53.268;8.308;2023-02-18T03:56:34;7.22;;;6.53;;
37657;SDS011;23500;53.268;8.308;2023-02-18T03:59:01;7.65;;;6.18;;
37657;SDS011;23500;53.268;8.308;2023-02-18T04:01:27;7.07;;;6.35;;
37657;SDS011;23500;53.268;8.308;2023-02-18T04:03:52;6.38;;;5.78;;
37657;SDS011;23500;53.268;8.308;2023-02-18T04:06:19;7.03;;;5.78;;
37657;SDS011;23500;53.268;8.308;2023-02-18T04:08:46;7.53;;;6.20;;
37657;SDS011;23500;53.268;8.308;2023-02-18T04:11:11;6.97;;;6.28;;
37657;SDS011;23500;53.268;8.308;2023-02-18T04:13:37;6.95;;;6.22;;
37657;SDS011;23500;53.268;8.308;2023-02-18T04:16:03;6.50;;;5.90;;
37657;SDS011;23500;53.268;8.308;2023-02-18T04:18:29;6.40;;;5.82;;
37657;SDS011;23500;53.268;8.308;2023-02-18T04:20:54;7.13;;;6.00;;
37657;SDS011;23500;53.268;8.308;2023-02-18T04:23:20;6.57;;;5.80;;
37657;SDS011;23500;53.268;8.308;2023-02-18T04:25:46;6.90;;;6.18;;
37657;SDS011;23500;53.268;8.308;2023-02-18T04:28:12;7.07;;;6.28;;
37657;SDS011;23500;53.268;8.308;2023-02-18T04:30:39;6.55;;;5.95;;
37657;SDS011;23500;53.268;8.308;2023-02-18T04:33:05;6.73;;;6.03;;
37657;SDS011;23500;53.268;8.308;2023-02-18T04:35:31;6.57;;;5.88;;
37657;SDS011;23500;53.268;8.308;2023-02-18T04:37:56;6.72;;;6.13;;
37657;SDS011;23500;53.268;8.308;2023-02-18T04:40:22;6.40;;;5.63;;
37657;SDS011;23500;53.268;8.308;2023-02-18T04:42:50;6.88;;;5.97;;
37657;SDS011;23500;53.268;8.308;2023-02-18T04:45:16;6.28;;;5.68;;
37657;SDS011;23500;53.268;8.308;2023-02-18T04:47:41;6.93;;;6.22;;
37657;SDS011;23500;53.268;8.308;2023-02-18T04:50:08;6.80;;;5.90;;
37657;SDS011;23500;53.268;8.308;2023-02-18T04:52:34;7.03;;;6.32;;
37657;SDS011;23500;53.268;8.308;2023-02-18T04:54:59;6.20;;;5.60;;
37657;SDS011;23500;53.268;8.308;2023-02-18T04:57:25;5.70;;;5.30;;
37657;SDS011;23500;53.268;8.308;2023-02-18T04:59:51;7.15;;;5.75;;
37657;SDS011;23500;53.268;8.308;2023-02-18T05:02:17;6.45;;;5.82;;
37657;SDS011;23500;53.268;8.308;2023-02-18T05:04:42;6.05;;;5.45;;
37657;SDS011;23500;53.268;8.308;2023-02-18T05:07:08;6.45;;;5.85;;
37657;SDS011;23500;53.268;8.308;2023-02-18T05:09:33;6.23;;;5.67;;
37657;SDS011;23500;53.268;8.308;2023-02-18T05:11:59;6.90;;;5.55;;
37657;SDS011;23500;53.268;8.308;2023-02-18T05:14:25;6.28;;;5.68;;
37657;SDS011;23500;53.268;8.308;2023-02-18T05:16:50;6.38;;;5.75;;
37657;SDS011;23500;53.268;8.308;2023-02-18T05:19:16;6.13;;;5.53;;
37657;SDS011;23500;53.268;8.308;2023-02-18T05:21:42;5.95;;;5.40;;
37657;SDS011;23500;53.268;8.308;2023-02-18T05:24:08;6.78;;;5.80;;
37657;SDS011;23500;53.268;8.308;2023-02-18T05:26:34;6.15;;;5.55;;
37657;SDS011;23500;53.268;8.308;2023-02-18T05:28:59;6.28;;;5.65;;
37657;SDS011;23500;53.268;8.308;2023-02-18T05:31:25;6.45;;;5.78;;
37657;SDS011;23500;53.268;8.308;2023-02-18T05:33:51;6.38;;;5.22;;
37657;SDS011;23500;53.268;8.308;2023-02-18T05:36:16;6.78;;;5.60;;
37657;SDS011;23500;53.268;8.308;2023-02-18T05:38:42;6.47;;;5.88;;
37657;SDS011;23500;53.268;8.308;2023-02-18T05:41:08;7.22;;;5.70;;
37657;SDS011;23500;53.268;8.308;2023-02-18T05:43:33;7.50;;;5.53;;
37657;SDS011;23500;53.268;8.308;2023-02-18T05:46:19;6.38;;;5.55;;
37657;SDS011;23500;53.268;8.308;2023-02-18T05:48:45;6.55;;;5.88;;
37657;SDS011;23500;53.268;8.308;2023-02-18T05:51:10;5.97;;;5.47;;
37657;SDS011;23500;53.268;8.308;2023-02-18T05:53:36;5.73;;;5.23;;
37657;SDS011;23500;53.268;8.308;2023-02-18T05:56:02;6.10;;;5.35;;
37657;SDS011;23500;53.268;8.308;2023-02-18T05:58:27;6.10;;;5.50;;
37657;SDS011;23500;53.268;8.308;2023-02-18T06:00:53;6.05;;;5.45;;
37657;SDS011;23500;53.268;8.308;2023-02-18T06:03:19;6.40;;;5.43;;
37657;SDS011;23500;53.268;8.308;2023-02-18T06:05:44;6.22;;;5.43;;
37657;SDS011;23500;53.268;8.308;2023-02-18T06:08:16;6.00;;;5.40;;
37657;SDS011;23500;53.268;8.308;2023-02-18T06:10:44;6.30;;;5.55;;
37657;SDS011;23500;53.268;8.308;2023-02-18T06:13:10;5.68;;;5.18;;
37657;SDS011;23500;53.268;8.308;2023-02-18T06:15:36;5.80;;;5.30;;
37657;SDS011;23500;53.268;8.308;2023-02-18T06:18:03;5.65;;;5.10;;
37657;SDS011;23500;53.268;8.308;2023-02-18T06:20:30;5.72;;;5.00;;
37657;SDS011;23500;53.268;8.308;2023-02-18T06:22:56;5.53;;;4.97;;
37657;SDS011;23500;53.268;8.308;2023-02-18T06:25:21;5.38;;;4.88;;
37657;SDS011;23500;53.268;8.308;2023-02-18T06:27:47;4.95;;;4.55;;
37657;SDS011;23500;53.268;8.308;2023-02-18T06:30:13;5.90;;;5.30;;
37657;SDS011;23500;53.268;8.308;2023-02-18T06:32:38;4.97;;;4.57;;
37657;SDS011;23500;53.268;8.308;2023-02-18T06:35:04;5.20;;;4.80;;
37657;SDS011;23500;53.268;8.308;2023-02-18T06:37:31;5.25;;;4.75;;
37657;SDS011;23500;53.268;8.308;2023-02-18T06:39:57;4.50;;;4.10;;
37657;SDS011;23500;53.268;8.308;2023-02-18T06:42:22;5.20;;;4.70;;
37657;SDS011;23500;53.268;8.308;2023-02-18T06:44:48;4.78;;;4.38;;
37657;SDS011;23500;53.268;8.308;2023-02-18T06:47:14;4.80;;;4.40;;
37657;SDS011;23500;53.268;8.308;2023-02-18T06:49:39;5.00;;;4.50;;
37657;SDS011;23500;53.268;8.308;2023-02-18T06:52:05;4.93;;;4.43;;
37657;SDS011;23500;53.268;8.308;2023-02-18T06:54:31;4.60;;;4.20;;
37657;SDS011;23500;53.268;8.308;2023-02-18T06:56:57;4.82;;;4.43;;
37657;SDS011;23500;53.268;8.308;2023-02-18T06:59:23;4.80;;;4.40;;
37657;SDS011;23500;53.268;8.308;2023-02-18T07:01:49;4.00;;;3.70;;
37657;SDS011;23500;53.268;8.308;2023-02-18T07:04:14;4.65;;;4.35;;
37657;SDS011;23500;53.268;8.308;2023-02-18T07:06:40;5.00;;;4.50;;
37657;SDS011;23500;53.268;8.308;2023-02-18T07:09:06;4.82;;;4.43;;
37657;SDS011;23500;53.268;8.308;2023-02-18T07:11:31;4.82;;;4.43;;
37657;SDS011;23500;53.268;8.308;2023-02-18T07:13:57;4.82;;;4.30;;
37657;SDS011;23500;53.268;8.308;2023-02-18T07:16:23;4.82;;;4.35;;
37657;SDS011;23500;53.268;8.308;2023-02-18T07:18:48;4.80;;;4.40;;
37657;SDS011;23500;53.268;8.308;2023-02-18T07:21:14;4.68;;;4.28;;
37657;SDS011;23500;53.268;8.308;2023-02-18T07:23:40;4.55;;;4.15;;
37657;SDS011;23500;53.268;8.308;2023-02-18T07:26:06;4.60;;;4.20;;
37657;SDS011;23500;53.268;8.308;2023-02-18T07:28:33;4.53;;;4.13;;
37657;SDS011;23500;53.268;8.308;2023-02-18T07:30:59;4.82;;;4.43;;
37657;SDS011;23500;53.268;8.308;2023-02-18T07:33:25;4.55;;;4.15;;
37657;SDS011;23500;53.268;8.308;2023-02-18T07:35:55;4.43;;;4.03;;
37657;SDS011;23500;53.268;8.308;2023-02-18T07:38:22;4.10;;;3.80;;
37657;SDS011;23500;53.268;8.308;2023-02-18T07:40:48;4.93;;;4.53;;
37657;SDS011;23500;53.268;8.308;2023-02-18T07:43:14;4.72;;;4.32;;
37657;SDS011;23500;53.268;8.308;2023-02-18T07:45:40;4.85;;;4.40;;
37657;SDS011;23500;53.268;8.308;2023-02-18T07:48:06;4.28;;;3.97;;
37657;SDS011;23500;53.268;8.308;2023-02-18T07:50:32;4.70;;;4.32;;
37657;SDS011;23500;53.268;8.308;2023-02-18T07:53:00;4.63;;;4.22;;
37657;SDS011;23500;53.268;8.308;2023-02-18T07:55:29;4.60;;;4.20;;
37657;SDS011;23500;53.268;8.308;2023-02-18T07:58:14;4.50;;;4.10;;
37657;SDS011;23500;53.268;8.308;2023-02-18T08:00:41;5.00;;;4.55;;
37657;SDS011;23500;53.268;8.308;2023-02-18T08:03:07;4.40;;;4.00;;
37657;SDS011;23500;53.268;8.308;2023-02-18T08:05:32;4.10;;;3.75;;
37657;SDS011;23500;53.268;8.308;2023-02-18T08:07:58;4.03;;;3.65;;
37657;SDS011;23500;53.268;8.308;2023-02-18T08:10:23;4.40;;;4.00;;
37657;SDS011;23500;53.268;8.308;2023-02-18T08:12:49;4.40;;;4.00;;
37657;SDS011;23500;53.268;8.308;2023-02-18T08:15:15;4.57;;;4.18;;
37657;SDS011;23500;53.268;8.308;2023-02-18T08:17:40;4.28;;;3.88;;
37657;SDS011;23500;53.268;8.308;2023-02-18T08:20:06;4.85;;;4.15;;
37657;SDS011;23500;53.268;8.308;2023-02-18T08:22:33;4.38;;;3.97;;
37657;SDS011;23500;53.268;8.308;2023-02-18T08:24:58;4.68;;;4.18;;
37657;SDS011;23500;53.268;8.308;2023-02-18T08:27:24;4.32;;;3.92;;
37657;SDS011;23500;53.268;8.308;2023-02-18T08:29:50;4.15;;;3.75;;
37657;SDS011;23500;53.268;8.308;2023-02-18T08:32:16;4.28;;;3.95;;
37657;SDS011;23500;53.268;8.308;2023-02-18T08:34:42;3.70;;;3.40;;
37657;SDS011;23500;53.268;8.308;2023-02-18T08:37:07;4.30;;;3.90;;
37657;SDS011;23500;53.268;8.308;2023-02-18T08:39:33;4.13;;;3.83;;
37657;SDS011;23500;53.268;8.308;2023-02-18T08:41:59;4.10;;;3.80;;
37657;SDS011;23500;53.268;8.308;2023-02-18T08:44:25;4.43;;;4.03;;
37657;SDS011;23500;53.268;8.308;2023-02-18T08:46:51;3.97;;;3.67;;
37657;SDS011;23500;53.268;8.308;2023-02-18T08:49:17;3.97;;;3.60;;
37657;SDS011;23500;53.268;8.308;2023-02-18T08:51:45;3.60;;;3.30;;
37657;SDS011;23500;53.268;8.308;2023-02-18T08:54:12;3.92;;;3.63;;
37657;SDS011;23500;53.268;8.308;2023-02-18T08:56:37;4.40;;;4.00;;
37657;SDS011;23500;53.268;8.308;2023-02-18T08:59:03;3.22;;;3.03;;
37657;SDS011;23500;53.268;8.308;2023-02-18T09:01:29;3.85;;;3.50;;
37657;SDS011;23500;53.268;8.308;2023-02-18T09:03:55;3.83;;;3.53;;
37657;SDS011;23500;53.268;8.308;2023-02-18T09:06:21;4.10;;;3.75;;
37657;SDS011;23500;53.268;8.308;2023-02-18T09:08:47;3.75;;;3.45;;
37657;SDS011;23500;53.268;8.308;2023-02-18T09:11:13;3.28;;;3.05;;
37657;SDS011;23500;53.268;8.308;2023-02-18T09:13:39;4.13;;;3.75;;
37657;SDS011;23500;53.268;8.308;2023-02-18T09:16:06;3.55;;;3.30;;
37657;SDS011;23500;53.268;8.308;2023-02-18T09:18:37;3.88;;;3.53;;
37657;SDS011;23500;53.268;8.308;2023-02-18T09:21:03;3.70;;;3.40;;
37657;SDS011;23500;53.268;8.308;2023-02-18T09:23:31;3.40;;;3.10;;
37657;SDS011;23500;53.268;8.308;2023-02-18T09:25:57;3.40;;;3.10;;
37657;SDS011;23500;53.268;8.308;2023-02-18T09:28:24;3.60;;;3.30;;
37657;SDS011;23500;53.268;8.308;2023-02-18T09:30:50;3.47;;;3.17;;
37657;SDS011;23500;53.268;8.308;2023-02-18T09:33:16;3.45;;;2.92;;
37657;SDS011;23500;53.268;8.308;2023-02-18T09:35:43;3.40;;;3.10;;
37657;SDS011;23500;53.268;8.308;2023-02-18T09:38:10;3.47;;;3.17;;
37657;SDS011;23500;53.268;8.308;2023-02-18T09:40:38;3.70;;;3.40;;
37657;SDS011;23500;53.268;8.308;2023-02-18T09:43:52;3.13;;;2.90;;
37657;SDS011;23500;53.268;8.308;2023-02-18T09:46:01;3.22;;;2.92;;
37657;SDS011;23500;53.268;8.308;2023-02-18T09:48:30;3.13;;;2.92;;
37657;SDS011;23500;53.268;8.308;2023-02-18T09:50:58;3.28;;;2.97;;
37657;SDS011;23500;53.268;8.308;2023-02-18T09:53:24;3.10;;;2.80;;
37657;SDS011;23500;53.268;8.308;2023-02-18T09:55:51;3.38;;;3.10;;
37657;SDS011;23500;53.268;8.308;2023-02-18T09:58:20;3.08;;;2.88;;
37657;SDS011;23500;53.268;8.308;2023-02-18T10:00:47;3.30;;;3.00;;
37657;SDS011;23500;53.268;8.308;2023-02-18T10:03:20;3.08;;;2.78;;
37657;SDS011;23500;53.268;8.308;2023-02-18T10:08:37;3.10;;;2.80;;
37657;SDS011;23500;53.268;8.308;2023-02-18T10:11:12;2.67;;;2.47;;
37657;SDS011;23500;53.268;8.308;2023-02-18T10:13:52;2.97;;;2.67;;
37657;SDS011;23500;53.268;8.308;2023-02-18T10:16:19;2.88;;;2.63;;
37657;SDS011;23500;53.268;8.308;2023-02-18T10:18:48;2.97;;;2.78;;
37657;SDS011;23500;53.268;8.308;2023-02-18T10:21:19;3.15;;;2.55;;
37657;SDS011;23500;53.268;8.308;2023-02-18T10:24:33;2.60;;;2.40;;
37657;SDS011;23500;53.268;8.308;2023-02-18T10:26:54;4.47;;;2.70;;
37657;SDS011;23500;53.268;8.308;2023-02-18T10:29:20;2.38;;;2.17;;
37657;SDS011;23500;53.268;8.308;2023-02-18T10:31:54;2.80;;;2.60;;
37657;SDS011;23500;53.268;8.308;2023-02-18T10:37:24;2.55;;;2.35;;
37657;SDS011;23500;53.268;8.308;2023-02-18T10:45:51;2.38;;;2.17;;
37657;SDS011;23500;53.268;8.308;2023-02-18T10:50:57;3.30;;;2.30;;
37657;SDS011;23500;53.268;8.308;2023-02-18T10:53:35;2.53;;;1.92;;
37657;SDS011;23500;53.268;8.308;2023-02-18T10:56:04;2.92;;;2.20;;
37657;SDS011;23500;53.268;8.308;2023-02-18T11:00:57;4.07;;;2.20;;
37657;SDS011;23500;53.268;8.308;2023-02-18T11:03:41;2.70;;;2.08;;
37657;SDS011;23500;53.268;8.308;2023-02-18T11:08:47;4.15;;;1.80;;
37657;SDS011;23500;53.268;8.308;2023-02-18T11:11:33;2.80;;;2.03;;
37657;SDS011;23500;53.268;8.308;2023-02-18T11:14:03;2.47;;;1.83;;
37657;SDS011;23500;53.268;8.308;2023-02-18T11:16:38;2.63;;;1.75;;
37657;SDS011;23500;53.268;8.308;2023-02-18T11:24:45;3.10;;;2.17;;
37657;SDS011;23500;53.268;8.308;2023-02-18T11:28:01;2.75;;;1.92;;
37657;SDS011;23500;53.268;8.308;2023-02-18T11:35:39;1.70;;;1.52;;
37657;SDS011;23500;53.268;8.308;2023-02-18T11:38:28;2.80;;;1.90;;
37657;SDS011;23500;53.268;8.308;2023-02-18T11:41:08;2.72;;;1.65;;
37657;SDS011;23500;53.268;8.308;2023-02-18T11:43:42;2.13;;;1.80;;
37657;SDS011;23500;53.268;8.308;2023-02-18T11:48:42;5.07;;;1.90;;
37657;SDS011;23500;53.268;8.308;2023-02-18T11:54:08;2.42;;;1.48;;
37657;SDS011;23500;53.268;8.308;2023-02-18T11:56:57;1.67;;;1.20;;
37657;SDS011;23500;53.268;8.308;2023-02-18T11:59:24;2.90;;;1.30;;
37657;SDS011;23500;53.268;8.308;2023-02-18T12:01:55;2.78;;;1.38;;
37657;SDS011;23500;53.268;8.308;2023-02-18T12:04:51;3.78;;;1.30;;
37657;SDS011;23500;53.268;8.308;2023-02-18T12:15:23;4.22;;;1.13;;
37657;SDS011;23500;53.268;8.308;2023-02-18T12:25:59;2.70;;;1.35;;
37657;SDS011;23500;53.268;8.308;2023-02-18T12:39:26;4.15;;;1.38;;
37657;SDS011;23500;53.268;8.308;2023-02-18T12:44:49;4.88;;;1.23;;
37657;SDS011;23500;53.268;8.308;2023-02-18T12:50:48;2.92;;;1.27;;
37657;SDS011;23500;53.268;8.308;2023-02-18T13:04:57;3.28;;;1.23;;
37657;SDS011;23500;53.268;8.308;2023-02-18T13:10:41;3.35;;;1.40;;
37657;SDS011;23500;53.268;8.308;2023-02-18T13:13:32;2.90;;;1.02;;
37657;SDS011;23500;53.268;8.308;2023-02-18T13:16:05;3.13;;;1.45;;
37657;SDS011;23500;53.268;8.308;2023-02-18T13:18:37;2.45;;;1.30;;
37657;SDS011;23500;53.268;8.308;2023-02-18T13:21:22;2.97;;;1.05;;
37657;SDS011;23500;53.268;8.308;2023-02-18T13:23:59;4.70;;;1.08;;
37657;SDS011;23500;53.268;8.308;2023-02-18T13:26:28;3.42;;;1.35;;
37657;SDS011;23500;53.268;8.308;2023-02-18T13:34:33;2.63;;;1.40;;
37657;SDS011;23500;53.268;8.308;2023-02-18T13:37:25;4.07;;;1.50;;
37657;SDS011;23500;53.268;8.308;2023-02-18T13:40:08;4.60;;;1.75;;
37657;SDS011;23500;53.268;8.308;2023-02-18T13:42:42;3.92;;;1.77;;
37657;SDS011;23500;53.268;8.308;2023-02-18T13:45:25;3.30;;;1.30;;
37657;SDS011;23500;53.268;8.308;2023-02-18T13:47:52;3.42;;;1.58;;
37657;SDS011;23500;53.268;8.308;2023-02-18T13:52:49;4.40;;;1.45;;
37657;SDS011;23500;53.268;8.308;2023-02-18T13:55:22;1.70;;;1.20;;
37657;SDS011;23500;53.268;8.308;2023-02-18T13:57:54;6.05;;;1.40;;
37657;SDS011;23500;53.268;8.308;2023-02-18T14:00:24;3.72;;;1.30;;
37657;SDS011;23500;53.268;8.308;2023-02-18T14:03:00;4.43;;;1.30;;
37657;SDS011;23500;53.268;8.308;2023-02-18T14:05:42;4.25;;;1.27;;
37657;SDS011;23500;53.268;8.308;2023-02-18T14:08:12;2.83;;;1.50;;
37657;SDS011;23500;53.268;8.308;2023-02-18T14:10:39;2.88;;;1.25;;
37657;SDS011;23500;53.268;8.308;2023-02-18T14:15:47;3.63;;;1.20;;
37657;SDS011;23500;53.268;8.308;2023-02-18T14:20:50;2.83;;;1.30;;
37657;SDS011;23500;53.268;8.308;2023-02-18T14:26:03;2.80;;;1.20;;
37657;SDS011;23500;53.268;8.308;2023-02-18T14:28:39;2.83;;;1.00;;
37657;SDS011;23500;53.268;8.308;2023-02-18T14:33:59;3.08;;;1.23;;
37657;SDS011;23500;53.268;8.308;2023-02-18T14:40:13;2.65;;;1.00;;
37657;SDS011;23500;53.268;8.308;2023-02-18T14:43:01;2.03;;;1.10;;
37657;SDS011;23500;53.268;8.308;2023-02-18T14:50:59;2.90;;;1.30;;
37657;SDS011;23500;53.268;8.308;2023-02-18T14:53:25;2.75;;;1.23;;
37657;SDS011;23500;53.268;8.308;2023-02-18T14:55:56;4.65;;;1.40;;
37657;SDS011;23500;53.268;8.308;2023-02-18T14:58:30;2.92;;;1.45;;
37657;SDS011;23500;53.268;8.308;2023-02-18T15:03:41;1.95;;;1.25;;
37657;SDS011;23500;53.268;8.308;2023-02-18T15:06:22;2.67;;;1.40;;
37657;SDS011;23500;53.268;8.308;2023-02-18T15:08:50;3.95;;;1.60;;
37657;SDS011;23500;53.268;8.308;2023-02-18T15:11:16;4.47;;;1.20;;
37657;SDS011;23500;53.268;8.308;2023-02-18T15:13:44;2.90;;;1.38;;
37657;SDS011;23500;53.268;8.308;2023-02-18T15:16:22;2.83;;;1.40;;
37657;SDS011;23500;53.268;8.308;2023-02-18T15:18:55;3.33;;;1.40;;
37657;SDS011;23500;53.268;8.308;2023-02-18T15:21:31;2.92;;;1.40;;
37657;SDS011;23500;53.268;8.308;2023-02-18T15:26:41;2.60;;;1.40;;
37657;SDS011;23500;53.268;8.308;2023-02-18T15:29:24;3.22;;;1.33;;
37657;SDS011;23500;53.268;8.308;2023-02-18T15:31:52;3.28;;;1.85;;
37657;SDS011;23500;53.268;8.308;2023-02-18T15:36:55;3.42;;;1.70;;
37657;SDS011;23500;53.268;8.308;2023-02-18T15:39:22;3.80;;;1.80;;
37657;SDS011;23500;53.268;8.308;2023-02-18T15:41:52;2.40;;;1.40;;
37657;SDS011;23500;53.268;8.308;2023-02-18T15:44:24;5.32;;;1.58;;
37657;SDS011;23500;53.268;8.308;2023-02-18T15:46:53;3.33;;;1.90;;
37657;SDS011;23500;53.268;8.308;2023-02-18T15:49:20;3.17;;;1.83;;
37657;SDS011;23500;53.268;8.308;2023-02-18T15:51:48;3.88;;;1.67;;
37657;SDS011;23500;53.268;8.308;2023-02-18T15:54:18;4.65;;;1.67;;
37657;SDS011;23500;53.268;8.308;2023-02-18T15:56:48;4.13;;;1.90;;
37657;SDS011;23500;53.268;8.308;2023-02-18T16:01:54;4.57;;;2.03;;
37657;SDS011;23500;53.268;8.308;2023-02-18T16:04:28;3.38;;;2.05;;
37657;SDS011;23500;53.268;8.308;2023-02-18T16:07:15;4.32;;;1.85;;
37657;SDS011;23500;53.268;8.308;2023-02-18T16:09:46;3.28;;;1.83;;
37657;SDS011;23500;53.268;8.308;2023-02-18T16:12:26;3.35;;;2.13;;
37657;SDS011;23500;53.268;8.308;2023-02-18T16:14:55;4.43;;;2.30;;
37657;SDS011;23500;53.268;8.308;2023-02-18T16:17:23;2.92;;;2.28;;
37657;SDS011;23500;53.268;8.308;2023-02-18T16:19:55;3.15;;;1.90;;
37657;SDS011;23500;53.268;8.308;2023-02-18T16:22:33;2.30;;;2.10;;
37657;SDS011;23500;53.268;8.308;2023-02-18T16:28:12;2.40;;;1.95;;
37657;SDS011;23500;53.268;8.308;2023-02-18T16:30:40;3.50;;;2.30;;
37657;SDS011;23500;53.268;8.308;2023-02-18T16:33:07;3.10;;;2.10;;
37657;SDS011;23500;53.268;8.308;2023-02-18T16:35:33;4.30;;;2.17;;
37657;SDS011;23500;53.268;8.308;2023-02-18T16:37:59;3.53;;;2.47;;
37657;SDS011;23500;53.268;8.308;2023-02-18T16:42:54;3.38;;;2.47;;
37657;SDS011;23500;53.268;8.308;2023-02-18T16:45:24;3.58;;;2.33;;
37657;SDS011;23500;53.268;8.308;2023-02-18T16:48:23;4.43;;;2.33;;
37657;SDS011;23500;53.268;8.308;2023-02-18T16:51:02;3.83;;;2.35;;
37657;SDS011;23500;53.268;8.308;2023-02-18T16:53:31;3.90;;;2.05;;
37657;SDS011;23500;53.268;8.308;2023-02-18T16:55:57;2.83;;;2.53;;
37657;SDS011;23500;53.268;8.308;2023-02-18T16:58:22;3.33;;;2.60;;
37657;SDS011;23500;53.268;8.308;2023-02-18T17:00:48;2.42;;;2.22;;
37657;SDS011;23500;53.268;8.308;2023-02-18T17:03:16;5.45;;;2.75;;
37657;SDS011;23500;53.268;8.308;2023-02-18T17:05:42;5.32;;;2.60;;
37657;SDS011;23500;53.268;8.308;2023-02-18T17:08:21;4.95;;;2.75;;
37657;SDS011;23500;53.268;8.308;2023-02-18T17:10:53;2.97;;;2.28;;
37657;SDS011;23500;53.268;8.308;2023-02-18T17:13:21;3.20;;;2.60;;
37657;SDS011;23500;53.268;8.308;2023-02-18T17:15:49;4.22;;;2.45;;
37657;SDS011;23500;53.268;8.308;2023-02-18T17:18:16;4.50;;;2.72;;
37657;SDS011;23500;53.268;8.308;2023-02-18T17:20:43;3.45;;;2.78;;
37657;SDS011;23500;53.268;8.308;2023-02-18T17:23:16;5.57;;;2.72;;
37657;SDS011;23500;53.268;8.308;2023-02-18T17:25:45;6.00;;;2.97;;
37657;SDS011;23500;53.268;8.308;2023-02-18T17:28:13;5.22;;;3.20;;
37657;SDS011;23500;53.268;8.308;2023-02-18T17:30:43;4.22;;;2.80;;
37657;SDS011;23500;53.268;8.308;2023-02-18T17:33:22;4.90;;;3.63;;
37657;SDS011;23500;53.268;8.308;2023-02-18T17:35:49;4.78;;;3.20;;
37657;SDS011;23500;53.268;8.308;2023-02-18T17:38:15;5.43;;;3.33;;
37657;SDS011;23500;53.268;8.308;2023-02-18T17:40:43;4.82;;;3.65;;
37657;SDS011;23500;53.268;8.308;2023-02-18T17:43:12;5.63;;;3.55;;
37657;SDS011;23500;53.268;8.308;2023-02-18T17:45:44;8.27;;;3.92;;
37657;SDS011;23500;53.268;8.308;2023-02-18T17:48:10;7.22;;;3.95;;
37657;SDS011;23500;53.268;8.308;2023-02-18T17:50:36;7.35;;;4.22;;